sensor_id;sensor_type;location;lat;lon;timestamp;temperature;humidity
55777;DHT22;54079;44.540;18.784;2023-05-10T00:01:09;15.00;78.10
55777;DHT22;54079;44.540;18.784;2023-05-10T00:03:35;15.00;78.00
55777;DHT22;54079;44.540;18.784;2023-05-10T00:06:01;14.90;78.50
55777;DHT22;54079;44.540;18.784;2023-05-10T00:08:27;14.80;78.70
55777;DHT22;54079;44.540;18.784;2023-05-10T00:10:53;14.80;78.20
55777;DHT22;54079;44.540;18.784;2023-05-10T00:13:19;14.80;78.00
55777;DHT22;54079;44.540;18.784;2023-05-10T00:15:45;14.80;77.60
55777;DHT22;54079;44.540;18.784;2023-05-10T00:18:11;14.80;78.00
55777;DHT22;54079;44.540;18.784;2023-05-10T00:20:37;14.70;78.10
55777;DHT22;54079;44.540;18.784;2023-05-10T00:23:03;14.60;78.70
55777;DHT22;54079;44.540;18.784;2023-05-10T00:25:29;14.50;78.70
55777;DHT22;54079;44.540;18.784;2023-05-10T00:27:55;14.40;79.40
55777;DHT22;54079;44.540;18.784;2023-05-10T00:30:22;14.40;78.80
55777;DHT22;54079;44.540;18.784;2023-05-10T00:32:48;14.30;79.20
55777;DHT22;54079;44.540;18.784;2023-05-10T00:35:15;14.20;79.00
55777;DHT22;54079;44.540;18.784;2023-05-10T00:37:41;14.10;80.20
55777;DHT22;54079;44.540;18.784;2023-05-10T00:40:08;13.90;80.40
55777;DHT22;54079;44.540;18.784;2023-05-10T00:42:34;13.80;81.20
55777;DHT22;54079;44.540;18.784;2023-05-10T00:45:00;13.70;81.70
55777;DHT22;54079;44.540;18.784;2023-05-10T00:47:26;13.50;82.30
55777;DHT22;54079;44.540;18.784;2023-05-10T00:49:52;13.50;82.00
55777;DHT22;54079;44.540;18.784;2023-05-10T00:52:18;13.40;82.90
55777;DHT22;54079;44.540;18.784;2023-05-10T00:54:44;13.30;83.20
55777;DHT22;54079;44.540;18.784;2023-05-10T00:57:10;13.10;83.50
55777;DHT22;54079;44.540;18.784;2023-05-10T00:59:36;12.90;83.90
55777;DHT22;54079;44.540;18.784;2023-05-10T01:02:02;12.90;84.10
55777;DHT22;54079;44.540;18.784;2023-05-10T01:04:30;13.00;84.20
55777;DHT22;54079;44.540;18.784;2023-05-10T01:06:56;12.90;84.70
55777;DHT22;54079;44.540;18.784;2023-05-10T01:09:22;12.80;85.50
55777;DHT22;54079;44.540;18.784;2023-05-10T01:11:49;12.80;85.20
55777;DHT22;54079;44.540;18.784;2023-05-10T01:14:17;12.70;85.30
55777;DHT22;54079;44.540;18.784;2023-05-10T01:16:44;12.70;85.00
55777;DHT22;54079;44.540;18.784;2023-05-10T01:19:25;12.60;86.10
55777;DHT22;54079;44.540;18.784;2023-05-10T01:22:42;12.60;87.20
55777;DHT22;54079;44.540;18.784;2023-05-10T01:33:21;12.50;87.20
55777;DHT22;54079;44.540;18.784;2023-05-10T01:35:51;12.40;87.00
55777;DHT22;54079;44.540;18.784;2023-05-10T01:46:35;12.50;85.70
55777;DHT22;54079;44.540;18.784;2023-05-10T01:49:02;12.50;85.30
55777;DHT22;54079;44.540;18.784;2023-05-10T01:51:37;12.40;85.50
55777;DHT22;54079;44.540;18.784;2023-05-10T01:54:05;12.30;85.30
55777;DHT22;54079;44.540;18.784;2023-05-10T01:56:35;12.30;85.40
55777;DHT22;54079;44.540;18.784;2023-05-10T01:59:14;12.20;85.80
55777;DHT22;54079;44.540;18.784;2023-05-10T02:01:41;12.00;87.00
55777;DHT22;54079;44.540;18.784;2023-05-10T02:04:09;11.80;88.10
55777;DHT22;54079;44.540;18.784;2023-05-10T02:06:38;11.60;89.20
55777;DHT22;54079;44.540;18.784;2023-05-10T02:09:05;11.60;89.70
55777;DHT22;54079;44.540;18.784;2023-05-10T02:11:32;11.50;89.50
55777;DHT22;54079;44.540;18.784;2023-05-10T02:13:59;11.30;90.50
55777;DHT22;54079;44.540;18.784;2023-05-10T02:16:26;11.30;90.90
55777;DHT22;54079;44.540;18.784;2023-05-10T02:18:53;11.40;90.80
55777;DHT22;54079;44.540;18.784;2023-05-10T02:21:21;11.40;91.60
55777;DHT22;54079;44.540;18.784;2023-05-10T02:23:50;11.40;91.90
55777;DHT22;54079;44.540;18.784;2023-05-10T02:26:18;11.40;91.60
55777;DHT22;54079;44.540;18.784;2023-05-10T02:28:47;11.40;91.70
55777;DHT22;54079;44.540;18.784;2023-05-10T02:31:15;11.40;91.60
55777;DHT22;54079;44.540;18.784;2023-05-10T02:33:42;11.50;91.30
55777;DHT22;54079;44.540;18.784;2023-05-10T02:36:09;11.60;91.00
55777;DHT22;54079;44.540;18.784;2023-05-10T02:38:36;11.70;90.60
55777;DHT22;54079;44.540;18.784;2023-05-10T02:41:03;11.80;90.20
55777;DHT22;54079;44.540;18.784;2023-05-10T02:43:32;11.90;89.50
55777;DHT22;54079;44.540;18.784;2023-05-10T02:45:59;12.10;88.60
55777;DHT22;54079;44.540;18.784;2023-05-10T02:48:25;12.10;87.80
55777;DHT22;54079;44.540;18.784;2023-05-10T02:50:52;12.10;87.60
55777;DHT22;54079;44.540;18.784;2023-05-10T02:53:23;12.20;87.00
55777;DHT22;54079;44.540;18.784;2023-05-10T02:55:59;12.20;86.20
55777;DHT22;54079;44.540;18.784;2023-05-10T02:58:26;12.20;85.90
55777;DHT22;54079;44.540;18.784;2023-05-10T03:00:52;12.20;85.40
55777;DHT22;54079;44.540;18.784;2023-05-10T03:03:19;12.30;86.70
55777;DHT22;54079;44.540;18.784;2023-05-10T03:05:45;12.10;86.50
55777;DHT22;54079;44.540;18.784;2023-05-10T03:08:11;12.20;86.10
55777;DHT22;54079;44.540;18.784;2023-05-10T03:10:45;12.10;86.40
55777;DHT22;54079;44.540;18.784;2023-05-10T03:14:04;12.10;86.20
55777;DHT22;54079;44.540;18.784;2023-05-10T03:17:04;12.10;85.50
55777;DHT22;54079;44.540;18.784;2023-05-10T03:20:04;12.20;85.20
55777;DHT22;54079;44.540;18.784;2023-05-10T03:22:36;12.10;85.50
55777;DHT22;54079;44.540;18.784;2023-05-10T03:25:06;12.10;85.20
55777;DHT22;54079;44.540;18.784;2023-05-10T03:27:35;12.00;85.60
55777;DHT22;54079;44.540;18.784;2023-05-10T03:30:03;11.90;86.70
55777;DHT22;54079;44.540;18.784;2023-05-10T03:32:30;11.90;86.10
55777;DHT22;54079;44.540;18.784;2023-05-10T03:34:58;12.00;85.90
55777;DHT22;54079;44.540;18.784;2023-05-10T03:37:23;12.00;85.70
55777;DHT22;54079;44.540;18.784;2023-05-10T03:39:49;12.00;85.80
55777;DHT22;54079;44.540;18.784;2023-05-10T03:42:15;12.10;85.70
55777;DHT22;54079;44.540;18.784;2023-05-10T03:44:43;12.10;85.60
55777;DHT22;54079;44.540;18.784;2023-05-10T03:47:09;12.20;85.10
55777;DHT22;54079;44.540;18.784;2023-05-10T03:49:35;12.20;85.30
55777;DHT22;54079;44.540;18.784;2023-05-10T03:52:01;12.20;85.10
55777;DHT22;54079;44.540;18.784;2023-05-10T03:54:27;12.30;84.70
55777;DHT22;54079;44.540;18.784;2023-05-10T03:56:53;12.40;84.20
55777;DHT22;54079;44.540;18.784;2023-05-10T03:59:18;12.40;83.70
55777;DHT22;54079;44.540;18.784;2023-05-10T04:01:44;12.50;82.90
55777;DHT22;54079;44.540;18.784;2023-05-10T04:04:10;12.60;82.70
55777;DHT22;54079;44.540;18.784;2023-05-10T04:06:37;12.70;83.70
55777;DHT22;54079;44.540;18.784;2023-05-10T04:09:03;12.70;84.10
55777;DHT22;54079;44.540;18.784;2023-05-10T04:11:30;12.70;82.80
55777;DHT22;54079;44.540;18.784;2023-05-10T04:13:56;12.70;82.90
55777;DHT22;54079;44.540;18.784;2023-05-10T04:16:22;12.90;82.30
55777;DHT22;54079;44.540;18.784;2023-05-10T04:18:48;12.90;81.70
55777;DHT22;54079;44.540;18.784;2023-05-10T04:21:14;13.00;81.40
55777;DHT22;54079;44.540;18.784;2023-05-10T04:23:40;13.10;81.20
55777;DHT22;54079;44.540;18.784;2023-05-10T04:26:06;13.20;81.00
55777;DHT22;54079;44.540;18.784;2023-05-10T04:28:32;13.40;80.80
55777;DHT22;54079;44.540;18.784;2023-05-10T04:31:05;13.40;80.20
55777;DHT22;54079;44.540;18.784;2023-05-10T04:33:32;13.60;80.80
55777;DHT22;54079;44.540;18.784;2023-05-10T04:35:58;13.60;80.20
55777;DHT22;54079;44.540;18.784;2023-05-10T04:38:24;13.80;80.90
55777;DHT22;54079;44.540;18.784;2023-05-10T04:40:50;14.00;80.70
55777;DHT22;54079;44.540;18.784;2023-05-10T04:43:16;16.20;77.60
55777;DHT22;54079;44.540;18.784;2023-05-10T04:45:42;19.90;69.30
55777;DHT22;54079;44.540;18.784;2023-05-10T04:48:08;22.60;62.80
55777;DHT22;54079;44.540;18.784;2023-05-10T04:50:34;24.90;58.80
55777;DHT22;54079;44.540;18.784;2023-05-10T04:53:00;24.80;57.70
55777;DHT22;54079;44.540;18.784;2023-05-10T04:55:26;24.40;57.90
55777;DHT22;54079;44.540;18.784;2023-05-10T04:57:53;24.00;57.40
55777;DHT22;54079;44.540;18.784;2023-05-10T05:00:20;23.70;57.30
55777;DHT22;54079;44.540;18.784;2023-05-10T05:02:46;23.10;58.80
55777;DHT22;54079;44.540;18.784;2023-05-10T05:05:13;23.40;58.40
55777;DHT22;54079;44.540;18.784;2023-05-10T05:07:38;24.40;57.60
55777;DHT22;54079;44.540;18.784;2023-05-10T05:10:06;27.80;54.50
55777;DHT22;54079;44.540;18.784;2023-05-10T05:12:32;29.90;51.50
55777;DHT22;54079;44.540;18.784;2023-05-10T05:14:58;31.80;50.70
55777;DHT22;54079;44.540;18.784;2023-05-10T05:17:24;33.00;49.00
55777;DHT22;54079;44.540;18.784;2023-05-10T05:19:50;34.00;48.10
55777;DHT22;54079;44.540;18.784;2023-05-10T05:22:16;34.80;46.60
55777;DHT22;54079;44.540;18.784;2023-05-10T05:24:42;35.30;46.10
55777;DHT22;54079;44.540;18.784;2023-05-10T05:27:08;36.40;45.00
55777;DHT22;54079;44.540;18.784;2023-05-10T05:29:34;36.90;44.20
55777;DHT22;54079;44.540;18.784;2023-05-10T05:32:00;37.70;43.70
55777;DHT22;54079;44.540;18.784;2023-05-10T05:34:26;38.50;42.60
55777;DHT22;54079;44.540;18.784;2023-05-10T05:36:52;38.40;42.20
55777;DHT22;54079;44.540;18.784;2023-05-10T05:39:18;38.40;42.30
55777;DHT22;54079;44.540;18.784;2023-05-10T05:41:44;38.80;41.70
55777;DHT22;54079;44.540;18.784;2023-05-10T05:44:10;39.60;42.10
55777;DHT22;54079;44.540;18.784;2023-05-10T05:46:36;39.60;41.50
55777;DHT22;54079;44.540;18.784;2023-05-10T05:49:01;39.90;40.70
55777;DHT22;54079;44.540;18.784;2023-05-10T05:51:28;39.90;41.40
55777;DHT22;54079;44.540;18.784;2023-05-10T05:53:53;40.20;41.50
55777;DHT22;54079;44.540;18.784;2023-05-10T05:56:19;40.40;39.70
55777;DHT22;54079;44.540;18.784;2023-05-10T05:58:50;40.80;40.00
55777;DHT22;54079;44.540;18.784;2023-05-10T06:01:16;40.80;41.10
55777;DHT22;54079;44.540;18.784;2023-05-10T06:03:42;41.40;40.50
55777;DHT22;54079;44.540;18.784;2023-05-10T06:06:08;41.60;40.40
55777;DHT22;54079;44.540;18.784;2023-05-10T06:08:34;42.10;40.50
55777;DHT22;54079;44.540;18.784;2023-05-10T06:11:00;41.90;39.70
55777;DHT22;54079;44.540;18.784;2023-05-10T06:13:27;42.90;39.20
55777;DHT22;54079;44.540;18.784;2023-05-10T06:16:01;43.70;39.00
55777;DHT22;54079;44.540;18.784;2023-05-10T06:18:27;43.70;38.80
55777;DHT22;54079;44.540;18.784;2023-05-10T06:20:53;43.90;39.30
55777;DHT22;54079;44.540;18.784;2023-05-10T06:23:19;44.00;38.90
55777;DHT22;54079;44.540;18.784;2023-05-10T06:25:45;44.40;38.20
55777;DHT22;54079;44.540;18.784;2023-05-10T06:28:11;44.90;38.80
55777;DHT22;54079;44.540;18.784;2023-05-10T06:30:37;45.20;37.90
55777;DHT22;54079;44.540;18.784;2023-05-10T06:33:03;46.00;37.70
55777;DHT22;54079;44.540;18.784;2023-05-10T06:35:29;46.60;37.90
55777;DHT22;54079;44.540;18.784;2023-05-10T06:37:55;46.40;37.40
55777;DHT22;54079;44.540;18.784;2023-05-10T06:40:21;46.80;37.40
55777;DHT22;54079;44.540;18.784;2023-05-10T06:42:48;47.00;37.10
55777;DHT22;54079;44.540;18.784;2023-05-10T06:45:14;47.30;37.00
55777;DHT22;54079;44.540;18.784;2023-05-10T06:47:40;47.70;37.50
55777;DHT22;54079;44.540;18.784;2023-05-10T06:50:10;47.70;36.60
55777;DHT22;54079;44.540;18.784;2023-05-10T06:52:39;47.80;36.60
55777;DHT22;54079;44.540;18.784;2023-05-10T06:55:05;48.10;36.90
55777;DHT22;54079;44.540;18.784;2023-05-10T06:57:31;48.00;36.50
55777;DHT22;54079;44.540;18.784;2023-05-10T06:59:58;48.50;36.00
55777;DHT22;54079;44.540;18.784;2023-05-10T07:02:24;48.90;36.30
55777;DHT22;54079;44.540;18.784;2023-05-10T07:04:50;48.60;35.80
55777;DHT22;54079;44.540;18.784;2023-05-10T07:07:17;46.30;36.60
55777;DHT22;54079;44.540;18.784;2023-05-10T07:09:43;45.10;37.10
55777;DHT22;54079;44.540;18.784;2023-05-10T07:12:09;46.30;37.00
55777;DHT22;54079;44.540;18.784;2023-05-10T07:14:35;46.90;36.60
55777;DHT22;54079;44.540;18.784;2023-05-10T07:17:01;47.60;36.70
55777;DHT22;54079;44.540;18.784;2023-05-10T07:19:27;48.00;36.10
55777;DHT22;54079;44.540;18.784;2023-05-10T07:21:54;47.40;36.50
55777;DHT22;54079;44.540;18.784;2023-05-10T07:24:20;46.90;35.80
55777;DHT22;54079;44.540;18.784;2023-05-10T07:26:46;47.40;36.70
55777;DHT22;54079;44.540;18.784;2023-05-10T07:29:12;47.60;36.20
55777;DHT22;54079;44.540;18.784;2023-05-10T07:31:38;48.50;36.30
55777;DHT22;54079;44.540;18.784;2023-05-10T07:34:04;49.70;36.00
55777;DHT22;54079;44.540;18.784;2023-05-10T07:36:30;50.10;35.20
55777;DHT22;54079;44.540;18.784;2023-05-10T07:38:56;49.70;34.90
55777;DHT22;54079;44.540;18.784;2023-05-10T07:41:23;49.70;35.40
55777;DHT22;54079;44.540;18.784;2023-05-10T07:43:49;49.60;35.40
55777;DHT22;54079;44.540;18.784;2023-05-10T07:46:14;49.70;36.00
55777;DHT22;54079;44.540;18.784;2023-05-10T07:48:41;50.20;35.30
55777;DHT22;54079;44.540;18.784;2023-05-10T07:51:06;50.00;35.20
55777;DHT22;54079;44.540;18.784;2023-05-10T07:53:35;50.00;35.30
55777;DHT22;54079;44.540;18.784;2023-05-10T07:56:20;50.50;35.50
55777;DHT22;54079;44.540;18.784;2023-05-10T07:58:46;49.70;34.80
55777;DHT22;54079;44.540;18.784;2023-05-10T08:01:12;50.10;34.80
55777;DHT22;54079;44.540;18.784;2023-05-10T08:03:38;49.50;35.80
55777;DHT22;54079;44.540;18.784;2023-05-10T08:06:04;48.60;35.10
55777;DHT22;54079;44.540;18.784;2023-05-10T08:08:30;49.20;35.80
55777;DHT22;54079;44.540;18.784;2023-05-10T08:10:56;50.00;35.50
55777;DHT22;54079;44.540;18.784;2023-05-10T08:13:22;50.30;35.30
55777;DHT22;54079;44.540;18.784;2023-05-10T08:15:48;50.80;34.90
55777;DHT22;54079;44.540;18.784;2023-05-10T08:18:14;50.10;35.00
55777;DHT22;54079;44.540;18.784;2023-05-10T08:20:40;49.80;34.90
55777;DHT22;54079;44.540;18.784;2023-05-10T08:23:06;45.60;36.40
55777;DHT22;54079;44.540;18.784;2023-05-10T08:25:32;44.40;37.10
55777;DHT22;54079;44.540;18.784;2023-05-10T08:27:58;45.10;37.50
55777;DHT22;54079;44.540;18.784;2023-05-10T08:30:24;44.10;37.10
55777;DHT22;54079;44.540;18.784;2023-05-10T08:32:50;43.10;37.40
55777;DHT22;54079;44.540;18.784;2023-05-10T08:35:16;42.20;37.70
55777;DHT22;54079;44.540;18.784;2023-05-10T08:37:42;42.00;37.70
55777;DHT22;54079;44.540;18.784;2023-05-10T08:40:09;40.40;38.10
55777;DHT22;54079;44.540;18.784;2023-05-10T08:42:40;38.60;39.80
55777;DHT22;54079;44.540;18.784;2023-05-10T08:45:10;37.80;41.90
55777;DHT22;54079;44.540;18.784;2023-05-10T08:47:37;36.80;42.20
55777;DHT22;54079;44.540;18.784;2023-05-10T08:50:05;36.10;43.20
55777;DHT22;54079;44.540;18.784;2023-05-10T08:52:33;34.40;44.30
55777;DHT22;54079;44.540;18.784;2023-05-10T08:55:03;34.20;44.90
55777;DHT22;54079;44.540;18.784;2023-05-10T08:57:29;33.00;45.80
55777;DHT22;54079;44.540;18.784;2023-05-10T08:59:55;33.10;45.20
55777;DHT22;54079;44.540;18.784;2023-05-10T09:02:21;34.80;46.20
55777;DHT22;54079;44.540;18.784;2023-05-10T09:04:48;36.20;44.40
55777;DHT22;54079;44.540;18.784;2023-05-10T09:07:15;35.80;43.60
55777;DHT22;54079;44.540;18.784;2023-05-10T09:09:41;34.50;45.30
55777;DHT22;54079;44.540;18.784;2023-05-10T09:12:08;32.90;46.50
55777;DHT22;54079;44.540;18.784;2023-05-10T09:14:37;32.20;47.60
55777;DHT22;54079;44.540;18.784;2023-05-10T09:17:04;31.10;47.80
55777;DHT22;54079;44.540;18.784;2023-05-10T09:19:30;30.70;48.30
55777;DHT22;54079;44.540;18.784;2023-05-10T09:21:56;30.20;49.90
55777;DHT22;54079;44.540;18.784;2023-05-10T09:24:25;29.50;49.30
55777;DHT22;54079;44.540;18.784;2023-05-10T09:26:52;28.90;50.30
55777;DHT22;54079;44.540;18.784;2023-05-10T09:29:18;28.50;51.60
55777;DHT22;54079;44.540;18.784;2023-05-10T09:31:49;27.80;52.70
55777;DHT22;54079;44.540;18.784;2023-05-10T09:34:28;27.00;53.60
55777;DHT22;54079;44.540;18.784;2023-05-10T09:36:56;27.10;53.80
55777;DHT22;54079;44.540;18.784;2023-05-10T09:39:35;27.00;53.70
55777;DHT22;54079;44.540;18.784;2023-05-10T09:42:06;26.40;54.90
55777;DHT22;54079;44.540;18.784;2023-05-10T09:44:33;26.10;55.20
55777;DHT22;54079;44.540;18.784;2023-05-10T09:47:00;26.60;55.50
55777;DHT22;54079;44.540;18.784;2023-05-10T09:49:26;26.40;55.40
55777;DHT22;54079;44.540;18.784;2023-05-10T09:52:05;26.80;54.60
55777;DHT22;54079;44.540;18.784;2023-05-10T09:54:31;26.50;55.50
55777;DHT22;54079;44.540;18.784;2023-05-10T09:56:58;26.70;54.90
55777;DHT22;54079;44.540;18.784;2023-05-10T09:59:27;27.00;55.50
55777;DHT22;54079;44.540;18.784;2023-05-10T10:01:56;26.90;54.40
55777;DHT22;54079;44.540;18.784;2023-05-10T10:04:22;27.00;54.20
55777;DHT22;54079;44.540;18.784;2023-05-10T10:06:59;27.20;53.20
55777;DHT22;54079;44.540;18.784;2023-05-10T10:09:25;27.60;52.40
55777;DHT22;54079;44.540;18.784;2023-05-10T10:11:51;27.80;53.30
55777;DHT22;54079;44.540;18.784;2023-05-10T10:14:18;27.60;53.20
55777;DHT22;54079;44.540;18.784;2023-05-10T10:16:45;27.80;53.50
55777;DHT22;54079;44.540;18.784;2023-05-10T10:19:11;27.70;53.40
55777;DHT22;54079;44.540;18.784;2023-05-10T10:21:37;27.20;53.60
55777;DHT22;54079;44.540;18.784;2023-05-10T10:24:03;26.90;54.50
55777;DHT22;54079;44.540;18.784;2023-05-10T10:26:33;26.50;54.40
55777;DHT22;54079;44.540;18.784;2023-05-10T10:31:45;25.80;55.90
55777;DHT22;54079;44.540;18.784;2023-05-10T10:34:28;26.10;56.00
55777;DHT22;54079;44.540;18.784;2023-05-10T10:36:56;25.80;55.90
55777;DHT22;54079;44.540;18.784;2023-05-10T10:39:23;25.80;56.50
55777;DHT22;54079;44.540;18.784;2023-05-10T10:41:54;26.20;56.80
55777;DHT22;54079;44.540;18.784;2023-05-10T10:47:20;26.70;54.90
55777;DHT22;54079;44.540;18.784;2023-05-10T10:52:35;26.40;54.20
55777;DHT22;54079;44.540;18.784;2023-05-10T10:57:42;27.00;54.60
55777;DHT22;54079;44.540;18.784;2023-05-10T11:00:32;27.30;55.10
55777;DHT22;54079;44.540;18.784;2023-05-10T11:05:44;27.50;52.80
55777;DHT22;54079;44.540;18.784;2023-05-10T11:08:29;26.90;54.30
55777;DHT22;54079;44.540;18.784;2023-05-10T11:13:53;27.50;52.70
55777;DHT22;54079;44.540;18.784;2023-05-10T11:16:28;27.30;52.80
55777;DHT22;54079;44.540;18.784;2023-05-10T11:19:07;27.50;55.00
55777;DHT22;54079;44.540;18.784;2023-05-10T11:21:34;27.70;52.60
55777;DHT22;54079;44.540;18.784;2023-05-10T11:24:14;27.50;53.60
55777;DHT22;54079;44.540;18.784;2023-05-10T11:26:40;27.10;53.90
55777;DHT22;54079;44.540;18.784;2023-05-10T11:29:06;26.50;53.40
55777;DHT22;54079;44.540;18.784;2023-05-10T11:31:32;26.40;54.60
55777;DHT22;54079;44.540;18.784;2023-05-10T11:34:00;27.30;54.80
55777;DHT22;54079;44.540;18.784;2023-05-10T11:36:33;27.60;54.20
55777;DHT22;54079;44.540;18.784;2023-05-10T11:38:59;27.80;54.30
55777;DHT22;54079;44.540;18.784;2023-05-10T11:41:27;27.80;53.30
55777;DHT22;54079;44.540;18.784;2023-05-10T11:43:54;27.70;53.00
55777;DHT22;54079;44.540;18.784;2023-05-10T11:46:23;27.40;53.60
55777;DHT22;54079;44.540;18.784;2023-05-10T11:48:51;27.50;54.00
55777;DHT22;54079;44.540;18.784;2023-05-10T11:51:25;27.30;53.00
55777;DHT22;54079;44.540;18.784;2023-05-10T11:53:55;26.80;53.50
55777;DHT22;54079;44.540;18.784;2023-05-10T11:56:22;26.40;54.60
55777;DHT22;54079;44.540;18.784;2023-05-10T11:58:56;25.90;54.60
55777;DHT22;54079;44.540;18.784;2023-05-10T12:01:24;25.70;54.90
55777;DHT22;54079;44.540;18.784;2023-05-10T12:03:52;25.70;54.80
55777;DHT22;54079;44.540;18.784;2023-05-10T12:06:21;25.30;55.00
55777;DHT22;54079;44.540;18.784;2023-05-10T12:08:48;25.30;55.30
55777;DHT22;54079;44.540;18.784;2023-05-10T12:11:18;25.00;56.80
55777;DHT22;54079;44.540;18.784;2023-05-10T12:13:45;25.10;56.60
55777;DHT22;54079;44.540;18.784;2023-05-10T12:16:23;25.70;55.70
55777;DHT22;54079;44.540;18.784;2023-05-10T12:18:50;26.10;55.70
55777;DHT22;54079;44.540;18.784;2023-05-10T12:21:18;25.90;55.30
55777;DHT22;54079;44.540;18.784;2023-05-10T12:23:52;25.60;56.70
55777;DHT22;54079;44.540;18.784;2023-05-10T12:26:22;26.00;56.30
55777;DHT22;54079;44.540;18.784;2023-05-10T12:28:50;25.60;55.80
55777;DHT22;54079;44.540;18.784;2023-05-10T12:31:16;25.30;56.60
55777;DHT22;54079;44.540;18.784;2023-05-10T12:33:45;24.90;56.10
55777;DHT22;54079;44.540;18.784;2023-05-10T12:36:14;25.20;56.80
55777;DHT22;54079;44.540;18.784;2023-05-10T12:38:46;25.40;56.90
55777;DHT22;54079;44.540;18.784;2023-05-10T12:41:17;25.60;56.60
55777;DHT22;54079;44.540;18.784;2023-05-10T12:43:44;26.00;57.10
55777;DHT22;54079;44.540;18.784;2023-05-10T12:46:13;25.90;56.10
55777;DHT22;54079;44.540;18.784;2023-05-10T12:48:40;26.20;56.90
55777;DHT22;54079;44.540;18.784;2023-05-10T12:51:07;26.10;55.60
55777;DHT22;54079;44.540;18.784;2023-05-10T12:53:35;26.20;55.90
55777;DHT22;54079;44.540;18.784;2023-05-10T12:56:02;26.30;56.30
55777;DHT22;54079;44.540;18.784;2023-05-10T12:58:28;26.00;56.30
55777;DHT22;54079;44.540;18.784;2023-05-10T13:00:54;26.10;56.80
55777;DHT22;54079;44.540;18.784;2023-05-10T13:03:22;25.80;55.10
55777;DHT22;54079;44.540;18.784;2023-05-10T13:05:48;25.60;55.90
55777;DHT22;54079;44.540;18.784;2023-05-10T13:08:14;25.50;56.60
55777;DHT22;54079;44.540;18.784;2023-05-10T13:10:40;25.10;57.20
55777;DHT22;54079;44.540;18.784;2023-05-10T13:13:06;25.30;57.50
55777;DHT22;54079;44.540;18.784;2023-05-10T13:15:34;25.30;57.40
55777;DHT22;54079;44.540;18.784;2023-05-10T13:18:00;25.20;58.10
55777;DHT22;54079;44.540;18.784;2023-05-10T13:20:26;25.10;58.20
55777;DHT22;54079;44.540;18.784;2023-05-10T13:22:52;25.00;58.30
55777;DHT22;54079;44.540;18.784;2023-05-10T13:25:19;25.00;58.10
55777;DHT22;54079;44.540;18.784;2023-05-10T13:27:45;24.50;58.20
55777;DHT22;54079;44.540;18.784;2023-05-10T13:30:11;24.50;58.50
55777;DHT22;54079;44.540;18.784;2023-05-10T13:32:38;24.50;58.00
55777;DHT22;54079;44.540;18.784;2023-05-10T13:35:04;24.60;58.00
55777;DHT22;54079;44.540;18.784;2023-05-10T13:37:31;24.30;58.30
55777;DHT22;54079;44.540;18.784;2023-05-10T13:39:57;24.60;58.70
55777;DHT22;54079;44.540;18.784;2023-05-10T13:42:23;24.80;58.30
55777;DHT22;54079;44.540;18.784;2023-05-10T13:44:52;24.70;59.00
55777;DHT22;54079;44.540;18.784;2023-05-10T13:47:18;24.40;59.10
55777;DHT22;54079;44.540;18.784;2023-05-10T13:49:44;24.70;59.10
55777;DHT22;54079;44.540;18.784;2023-05-10T13:52:10;24.50;59.00
55777;DHT22;54079;44.540;18.784;2023-05-10T13:54:36;24.50;58.90
55777;DHT22;54079;44.540;18.784;2023-05-10T13:57:03;24.40;58.80
55777;DHT22;54079;44.540;18.784;2023-05-10T13:59:30;24.50;59.00
55777;DHT22;54079;44.540;18.784;2023-05-10T14:02:00;24.30;59.20
55777;DHT22;54079;44.540;18.784;2023-05-10T14:04:29;24.20;59.50
55777;DHT22;54079;44.540;18.784;2023-05-10T14:06:56;24.30;60.00
55777;DHT22;54079;44.540;18.784;2023-05-10T14:09:22;24.20;59.50
55777;DHT22;54079;44.540;18.784;2023-05-10T14:11:48;24.00;60.20
55777;DHT22;54079;44.540;18.784;2023-05-10T14:14:14;24.00;60.10
55777;DHT22;54079;44.540;18.784;2023-05-10T14:16:43;23.70;60.50
55777;DHT22;54079;44.540;18.784;2023-05-10T14:19:10;23.70;60.50
55777;DHT22;54079;44.540;18.784;2023-05-10T14:21:37;23.60;61.40
55777;DHT22;54079;44.540;18.784;2023-05-10T14:24:03;23.50;61.70
55777;DHT22;54079;44.540;18.784;2023-05-10T14:26:29;23.60;61.20
55777;DHT22;54079;44.540;18.784;2023-05-10T14:28:55;23.70;61.80
55777;DHT22;54079;44.540;18.784;2023-05-10T14:31:20;23.80;61.40
55777;DHT22;54079;44.540;18.784;2023-05-10T14:33:48;23.90;61.30
55777;DHT22;54079;44.540;18.784;2023-05-10T14:36:14;24.00;62.10
55777;DHT22;54079;44.540;18.784;2023-05-10T14:38:40;24.00;60.70
55777;DHT22;54079;44.540;18.784;2023-05-10T14:41:07;23.90;60.40
55777;DHT22;54079;44.540;18.784;2023-05-10T14:43:33;23.70;60.30
55777;DHT22;54079;44.540;18.784;2023-05-10T14:45:59;23.80;61.10
55777;DHT22;54079;44.540;18.784;2023-05-10T14:48:25;23.60;61.60
55777;DHT22;54079;44.540;18.784;2023-05-10T14:50:51;23.70;61.30
55777;DHT22;54079;44.540;18.784;2023-05-10T14:53:18;23.70;61.10
55777;DHT22;54079;44.540;18.784;2023-05-10T14:55:44;23.50;60.80
55777;DHT22;54079;44.540;18.784;2023-05-10T14:58:10;23.20;61.10
55777;DHT22;54079;44.540;18.784;2023-05-10T15:00:36;23.20;61.50
55777;DHT22;54079;44.540;18.784;2023-05-10T15:03:02;23.30;62.10
55777;DHT22;54079;44.540;18.784;2023-05-10T15:05:29;23.20;61.70
55777;DHT22;54079;44.540;18.784;2023-05-10T15:07:55;23.20;61.80
55777;DHT22;54079;44.540;18.784;2023-05-10T15:10:21;23.10;61.90
55777;DHT22;54079;44.540;18.784;2023-05-10T15:12:47;23.00;62.40
55777;DHT22;54079;44.540;18.784;2023-05-10T15:15:13;23.00;62.30
55777;DHT22;54079;44.540;18.784;2023-05-10T15:17:39;22.90;62.00
55777;DHT22;54079;44.540;18.784;2023-05-10T15:20:05;22.80;62.70
55777;DHT22;54079;44.540;18.784;2023-05-10T15:22:31;22.70;62.20
55777;DHT22;54079;44.540;18.784;2023-05-10T15:24:58;22.70;62.40
55777;DHT22;54079;44.540;18.784;2023-05-10T15:27:25;22.70;62.60
55777;DHT22;54079;44.540;18.784;2023-05-10T15:29:52;22.50;62.30
55777;DHT22;54079;44.540;18.784;2023-05-10T15:32:18;22.50;62.50
55777;DHT22;54079;44.540;18.784;2023-05-10T15:34:44;22.50;62.90
55777;DHT22;54079;44.540;18.784;2023-05-10T15:37:10;22.50;63.00
55777;DHT22;54079;44.540;18.784;2023-05-10T15:39:36;22.30;63.00
55777;DHT22;54079;44.540;18.784;2023-05-10T15:42:02;22.40;62.60
55777;DHT22;54079;44.540;18.784;2023-05-10T15:44:29;22.40;63.20
55777;DHT22;54079;44.540;18.784;2023-05-10T15:46:55;22.50;63.10
55777;DHT22;54079;44.540;18.784;2023-05-10T15:49:21;22.50;62.40
55777;DHT22;54079;44.540;18.784;2023-05-10T15:51:47;22.70;63.00